createdAt,value
2019-02-28T17:14:28.823Z,11.18
2019-02-28T17:17:00.583Z,11.30
2019-02-28T17:19:31.691Z,17.05
2019-02-28T17:22:02.043Z,9.75
2019-02-28T17:24:31.756Z,12.90
2019-02-28T17:27:06.257Z,24.43
2019-02-28T17:29:44.829Z,36.38
2019-02-28T17:32:14.963Z,38.28
2019-02-28T17:34:46.298Z,8.38
2019-02-28T17:37:20.423Z,15.83
2019-02-28T17:39:51.156Z,15.00
2019-02-28T17:42:27.882Z,18.37
2019-02-28T17:45:10.560Z,24.02
2019-02-28T17:48:17.644Z,10.55
2019-02-28T17:51:01.040Z,14.50
2019-02-28T17:53:45.641Z,16.48
2019-02-28T17:56:27.653Z,12.60
2019-02-28T18:02:10.271Z,22.32
2019-02-28T18:04:56.155Z,32.95
2019-02-28T18:07:29.159Z,28.73
2019-02-28T18:12:45.452Z,28.10
2019-02-28T18:15:34.997Z,30.72
2019-02-28T18:18:18.093Z,37.00
2019-02-28T18:21:08.660Z,37.03
2019-02-28T18:23:50.499Z,34.43
2019-02-28T18:26:49.754Z,33.15
2019-02-28T18:29:38.000Z,38.92
2019-02-28T18:32:09.357Z,35.00
2019-02-28T18:34:39.239Z,31.23
2019-02-28T18:37:09.124Z,35.38
2019-02-28T18:39:39.431Z,35.25
2019-02-28T18:42:09.218Z,38.90
2019-02-28T18:44:41.209Z,41.95
2019-02-28T18:47:11.292Z,40.52
2019-02-28T18:49:41.286Z,34.25
2019-02-28T18:52:11.252Z,39.67
2019-02-28T18:54:41.449Z,39.15
2019-02-28T18:57:11.145Z,35.17
2019-02-28T18:59:40.955Z,35.95
2019-02-28T19:02:11.190Z,41.50
2019-02-28T19:04:40.835Z,35.05
2019-02-28T19:07:11.616Z,38.50
2019-02-28T19:09:41.937Z,36.50
2019-02-28T19:12:11.654Z,37.95
2019-02-28T19:14:41.354Z,34.58
2019-02-28T19:17:13.147Z,35.90
2019-02-28T19:19:43.124Z,41.28
2019-02-28T19:22:13.244Z,36.83
2019-02-28T19:24:46.023Z,36.20
2019-02-28T19:29:51.687Z,37.23
2019-02-28T19:32:21.776Z,40.83
2019-02-28T19:34:51.432Z,34.50
2019-02-28T19:37:21.322Z,36.85
2019-02-28T19:39:51.702Z,34.67
2019-02-28T19:42:21.472Z,39.35
2019-02-28T19:44:51.223Z,38.25
2019-02-28T19:47:21.489Z,35.40
2019-02-28T19:49:51.523Z,41.33
2019-02-28T19:52:21.170Z,35.25
2019-02-28T19:54:51.464Z,35.78
2019-02-28T19:57:21.274Z,39.10
2019-02-28T19:59:50.905Z,36.63
2019-02-28T20:02:21.006Z,36.35
2019-02-28T20:04:52.484Z,31.05
2019-02-28T20:07:22.473Z,35.98
2019-02-28T20:09:53.328Z,34.40
2019-02-28T20:12:23.395Z,30.75
2019-02-28T20:14:53.862Z,36.58
2019-02-28T20:17:31.357Z,34.75
2019-02-28T20:20:02.637Z,31.95
2019-02-28T20:22:34.716Z,35.08
2019-02-28T20:25:05.769Z,32.95
2019-02-28T20:27:36.486Z,38.30
2019-02-28T20:30:11.928Z,31.73
2019-02-28T20:32:42.097Z,36.20
2019-02-28T20:35:11.856Z,35.33
2019-02-28T20:37:41.569Z,33.30
2019-02-28T20:40:14.184Z,31.93
2019-02-28T20:42:44.976Z,33.55
2019-02-28T20:45:16.732Z,37.25
2019-02-28T20:47:46.554Z,37.83
2019-02-28T20:50:40.586Z,35.83
2019-02-28T20:53:10.448Z,43.95
2019-02-28T20:55:40.640Z,34.00
2019-02-28T20:58:10.580Z,41.73
2019-02-28T21:00:40.277Z,40.65
2019-02-28T21:03:10.612Z,43.70
2019-02-28T21:05:41.945Z,37.28
2019-02-28T21:08:12.171Z,39.98
2019-02-28T21:10:41.878Z,44.58
2019-02-28T21:13:11.501Z,37.38
2019-02-28T21:15:41.709Z,44.50
2019-02-28T21:18:11.418Z,44.53
2019-02-28T21:20:42.411Z,45.58
2019-02-28T21:23:12.690Z,46.73
2019-02-28T21:25:42.689Z,47.03
2019-02-28T21:28:12.354Z,48.40
2019-02-28T21:30:42.534Z,48.70
2019-02-28T21:33:12.223Z,49.73
2019-02-28T21:35:42.081Z,54.85
2019-02-28T21:38:12.870Z,62.20
2019-02-28T21:40:42.715Z,68.28
2019-02-28T21:43:12.487Z,72.87
2019-02-28T21:45:42.615Z,61.90
2019-02-28T21:48:12.420Z,56.25
2019-02-28T21:50:43.627Z,64.95
2019-02-28T21:53:13.675Z,49.73
2019-02-28T21:55:43.385Z,47.73
2019-02-28T21:58:13.456Z,47.30
2019-02-28T22:00:44.056Z,47.70
2019-02-28T22:03:14.165Z,56.70
2019-02-28T22:05:43.895Z,52.35
2019-02-28T22:08:15.791Z,44.90
2019-02-28T22:10:45.961Z,46.35
2019-02-28T22:13:16.239Z,38.38
2019-02-28T22:15:46.175Z,39.23
2019-02-28T22:18:16.427Z,40.12
2019-02-28T22:20:46.967Z,40.55
2019-02-28T22:23:20.407Z,38.23
2019-02-28T22:25:51.507Z,37.88
2019-02-28T22:28:21.492Z,39.42
2019-02-28T22:30:53.486Z,40.52
2019-02-28T22:33:27.865Z,41.25
2019-02-28T22:36:05.796Z,35.23
2019-02-28T22:38:36.084Z,35.98
2019-02-28T22:41:06.625Z,36.42
2019-02-28T22:43:36.367Z,41.75
2019-02-28T22:46:06.337Z,43.00
2019-02-28T22:48:36.638Z,40.50
2019-02-28T22:51:08.409Z,41.25
2019-02-28T22:53:38.743Z,38.25
2019-02-28T22:56:09.678Z,49.95
2019-02-28T22:58:41.156Z,39.53
2019-02-28T23:01:14.779Z,34.63
2019-02-28T23:03:45.315Z,32.67
2019-02-28T23:06:15.365Z,34.27
2019-02-28T23:08:45.216Z,32.85
2019-02-28T23:11:15.758Z,30.37
2019-02-28T23:13:45.676Z,30.15
2019-02-28T23:16:17.761Z,37.67
2019-02-28T23:18:48.069Z,41.47
2019-02-28T23:21:18.026Z,42.20
2019-02-28T23:23:54.458Z,64.05
2019-02-28T23:26:27.993Z,64.85
2019-02-28T23:29:01.995Z,63.55
2019-02-28T23:31:53.435Z,57.80
2019-02-28T23:34:26.464Z,56.95
2019-02-28T23:36:56.791Z,56.58
2019-02-28T23:39:26.961Z,61.90
2019-02-28T23:41:56.731Z,56.00
2019-02-28T23:44:26.951Z,49.50
2019-02-28T23:46:57.068Z,49.50
2019-02-28T23:49:27.033Z,46.28
2019-02-28T23:51:57.729Z,54.50
2019-02-28T23:54:29.116Z,44.98
2019-02-28T23:56:59.546Z,48.73
2019-02-28T23:59:29.635Z,49.80
